CheckWX is a tool to help pilots better visualize weather data.  It is not intended as a substitute for an official pre-flight weather briefing.

08:41:43 UTC

EGPD TAF
Aberdeen Dyce Airport
Aberdeen, United Kingdom
TAF AMD EGPD 180628Z 1806/1906 15007KT 9999 FEW020 TEMPO 1806/1821 6000 SHRA PROB40 TEMPO 1806/1821 2500 +SHRA BKN009CB PROB30 TEMPO 1806/1809 0500 FG VV/// BECMG 1812/1815 05010KT TEMPO 1901/1906 6000 SHRA PROB40 TEMPO 1901/1906 03015G25KT 2500 +SHRA BKN009CB

Oct-18@
06:00 UTC

Oct-18 @ 06:00 UTC

Oct-18@
12:00 UTC

Oct-18 @ 12:00 UTC

TAF AMD EGPD 180628Z 1806/1906 15007KT 9999 FEW020
Wind
  • 150° at 7 KTS
Cloud Levels
  • Few at 2,000' AGL

Oct-18@
06:00 UTC

Oct-18 @ 06:00 UTC

Oct-18@
09:00 UTC

Oct-18 @ 09:00 UTC

PROB30 TEMPO 1806/1809 0500 FG VV///

Temporary - 30% Likelihood

Temporary - 30% Likelihood during this time.

Conditions
Fog

Oct-18@
06:00 UTC

Oct-18 @ 06:00 UTC

Oct-18@
21:00 UTC

Oct-18 @ 21:00 UTC

PROB40 TEMPO 1806/1821 2500 +SHRA BKN009CB

Temporary - 40% Likelihood

Temporary - 40% Likelihood during this time.

Conditions
Heavy Rain
Cloud Levels
  • Broken at 900' AGL

Oct-18@
06:00 UTC

Oct-18 @ 06:00 UTC

Oct-18@
21:00 UTC

Oct-18 @ 21:00 UTC

TEMPO 1806/1821 6000 SHRA

Temporary

Temporary Changes expected for less than half the time period

Conditions
Rain

Oct-18@
12:00 UTC

Oct-18 @ 12:00 UTC

Oct-19@
06:00 UTC

Oct-19 @ 06:00 UTC

BECMG 1812/1815 05010KT

Becoming

Becoming Conditions expected by Fri, Oct 18, 2019 @ 15:00 UTC

Wind
  • 050° at 10 KTS
Cloud Levels
  • Few at 2,000' AGL

Oct-19@
01:00 UTC

Oct-19 @ 01:00 UTC

Oct-19@
06:00 UTC

Oct-19 @ 06:00 UTC

PROB40 TEMPO 1901/1906 03015G25KT 2500 +SHRA BKN009CB

Temporary - 40% Likelihood

Temporary - 40% Likelihood during this time.

Wind
  • 030° at 15 KTS
  • {Gusting to 25 KTS
Conditions
Heavy Rain
Cloud Levels
  • Broken at 900' AGL

Oct-19@
01:00 UTC

Oct-19 @ 01:00 UTC

Oct-19@
06:00 UTC

Oct-19 @ 06:00 UTC

TEMPO 1901/1906 6000 SHRA

Temporary

Temporary Changes expected for less than half the time period

Conditions
Rain